sensor_id;sensor_type;location;lat;lon;timestamp;P1;durP1;ratioP1;P2;durP2;ratioP2
33993;SDS011;20673;48.980;8.138;2022-09-02T00:01:22;5.65;;;5.05;;
33993;SDS011;20673;48.980;8.138;2022-09-02T00:03:57;6.15;;;5.45;;
33993;SDS011;20673;48.980;8.138;2022-09-02T00:06:27;6.33;;;5.23;;
33993;SDS011;20673;48.980;8.138;2022-09-02T00:08:55;6.22;;;5.62;;
33993;SDS011;20673;48.980;8.138;2022-09-02T00:11:24;6.08;;;5.53;;
33993;SDS011;20673;48.980;8.138;2022-09-02T00:13:55;5.92;;;4.95;;
33993;SDS011;20673;48.980;8.138;2022-09-02T00:16:22;5.58;;;5.08;;
33993;SDS011;20673;48.980;8.138;2022-09-02T00:18:53;5.85;;;5.22;;
33993;SDS011;20673;48.980;8.138;2022-09-02T00:21:21;5.55;;;5.00;;
33993;SDS011;20673;48.980;8.138;2022-09-02T00:23:49;5.72;;;5.22;;
33993;SDS011;20673;48.980;8.138;2022-09-02T00:26:16;5.37;;;4.87;;
33993;SDS011;20673;48.980;8.138;2022-09-02T00:28:42;5.92;;;5.42;;
33993;SDS011;20673;48.980;8.138;2022-09-02T00:31:09;6.12;;;5.53;;
33993;SDS011;20673;48.980;8.138;2022-09-02T00:33:35;7.03;;;5.17;;
33993;SDS011;20673;48.980;8.138;2022-09-02T00:36:02;5.75;;;5.25;;
33993;SDS011;20673;48.980;8.138;2022-09-02T00:38:29;5.65;;;5.15;;
33993;SDS011;20673;48.980;8.138;2022-09-02T00:40:58;5.90;;;5.40;;
33993;SDS011;20673;48.980;8.138;2022-09-02T00:46:19;5.87;;;5.28;;
33993;SDS011;20673;48.980;8.138;2022-09-02T00:48:55;5.67;;;5.15;;
33993;SDS011;20673;48.980;8.138;2022-09-02T00:51:28;5.65;;;4.92;;
33993;SDS011;20673;48.980;8.138;2022-09-02T00:54:05;5.42;;;4.92;;
33993;SDS011;20673;48.980;8.138;2022-09-02T00:56:32;5.45;;;4.95;;
33993;SDS011;20673;48.980;8.138;2022-09-02T00:59:01;5.28;;;4.78;;
33993;SDS011;20673;48.980;8.138;2022-09-02T01:01:27;6.47;;;5.87;;
33993;SDS011;20673;48.980;8.138;2022-09-02T01:03:54;5.97;;;5.47;;
33993;SDS011;20673;48.980;8.138;2022-09-02T01:06:21;5.37;;;4.97;;
33993;SDS011;20673;48.980;8.138;2022-09-02T01:08:52;7.97;;;5.65;;
33993;SDS011;20673;48.980;8.138;2022-09-02T01:11:26;5.70;;;5.22;;
33993;SDS011;20673;48.980;8.138;2022-09-02T01:14:12;6.15;;;5.65;;
33993;SDS011;20673;48.980;8.138;2022-09-02T01:16:51;5.60;;;5.10;;
33993;SDS011;20673;48.980;8.138;2022-09-02T01:19:29;6.47;;;5.23;;
33993;SDS011;20673;48.980;8.138;2022-09-02T01:22:01;6.08;;;5.53;;
33993;SDS011;20673;48.980;8.138;2022-09-02T01:24:48;5.95;;;5.35;;
33993;SDS011;20673;48.980;8.138;2022-09-02T01:27:15;6.03;;;5.42;;
33993;SDS011;20673;48.980;8.138;2022-09-02T01:29:45;6.20;;;5.60;;
33993;SDS011;20673;48.980;8.138;2022-09-02T01:32:17;6.53;;;5.90;;
33993;SDS011;20673;48.980;8.138;2022-09-02T01:34:43;6.25;;;5.65;;
33993;SDS011;20673;48.980;8.138;2022-09-02T01:37:10;5.83;;;5.23;;
33993;SDS011;20673;48.980;8.138;2022-09-02T01:39:36;6.50;;;5.40;;
33993;SDS011;20673;48.980;8.138;2022-09-02T01:42:02;7.50;;;5.40;;
33993;SDS011;20673;48.980;8.138;2022-09-02T01:44:29;5.95;;;5.40;;
33993;SDS011;20673;48.980;8.138;2022-09-02T01:46:55;6.08;;;5.50;;
33993;SDS011;20673;48.980;8.138;2022-09-02T01:49:21;7.00;;;5.57;;
33993;SDS011;20673;48.980;8.138;2022-09-02T01:51:48;9.05;;;6.50;;
33993;SDS011;20673;48.980;8.138;2022-09-02T01:54:16;6.73;;;5.80;;
33993;SDS011;20673;48.980;8.138;2022-09-02T01:56:42;5.90;;;5.40;;
33993;SDS011;20673;48.980;8.138;2022-09-02T01:59:09;5.47;;;4.90;;
33993;SDS011;20673;48.980;8.138;2022-09-02T02:01:37;7.17;;;5.73;;
33993;SDS011;20673;48.980;8.138;2022-09-02T02:04:04;6.23;;;5.57;;
33993;SDS011;20673;48.980;8.138;2022-09-02T02:06:30;6.20;;;5.60;;
33993;SDS011;20673;48.980;8.138;2022-09-02T02:08:56;6.40;;;5.77;;
33993;SDS011;20673;48.980;8.138;2022-09-02T02:11:23;5.80;;;5.20;;
33993;SDS011;20673;48.980;8.138;2022-09-02T02:13:50;5.93;;;5.33;;
33993;SDS011;20673;48.980;8.138;2022-09-02T02:16:16;5.20;;;4.70;;
33993;SDS011;20673;48.980;8.138;2022-09-02T02:18:43;6.80;;;5.67;;
33993;SDS011;20673;48.980;8.138;2022-09-02T02:21:09;5.20;;;4.67;;
33993;SDS011;20673;48.980;8.138;2022-09-02T02:23:36;5.70;;;5.20;;
33993;SDS011;20673;48.980;8.138;2022-09-02T02:26:02;6.70;;;5.43;;
33993;SDS011;20673;48.980;8.138;2022-09-02T02:28:29;6.97;;;5.60;;
33993;SDS011;20673;48.980;8.138;2022-09-02T02:30:55;7.97;;;5.50;;
33993;SDS011;20673;48.980;8.138;2022-09-02T02:33:24;5.30;;;4.90;;
33993;SDS011;20673;48.980;8.138;2022-09-02T02:35:50;5.90;;;5.30;;
33993;SDS011;20673;48.980;8.138;2022-09-02T02:38:17;6.23;;;5.23;;
33993;SDS011;20673;48.980;8.138;2022-09-02T02:40:43;6.47;;;5.50;;
33993;SDS011;20673;48.980;8.138;2022-09-02T02:43:09;7.20;;;5.57;;
33993;SDS011;20673;48.980;8.138;2022-09-02T02:45:35;6.17;;;5.53;;
33993;SDS011;20673;48.980;8.138;2022-09-02T02:48:02;5.80;;;5.30;;
33993;SDS011;20673;48.980;8.138;2022-09-02T02:50:28;6.77;;;5.00;;
33993;SDS011;20673;48.980;8.138;2022-09-02T02:52:54;5.60;;;4.93;;
33993;SDS011;20673;48.980;8.138;2022-09-02T02:55:21;6.47;;;5.70;;
33993;SDS011;20673;48.980;8.138;2022-09-02T02:57:49;7.57;;;5.83;;
33993;SDS011;20673;48.980;8.138;2022-09-02T03:00:18;6.30;;;5.80;;
33993;SDS011;20673;48.980;8.138;2022-09-02T03:02:53;6.50;;;5.80;;
33993;SDS011;20673;48.980;8.138;2022-09-02T03:05:22;5.63;;;5.13;;
33993;SDS011;20673;48.980;8.138;2022-09-02T03:07:48;8.10;;;6.00;;
33993;SDS011;20673;48.980;8.138;2022-09-02T03:10:16;6.23;;;5.57;;
33993;SDS011;20673;48.980;8.138;2022-09-02T03:12:42;6.20;;;5.60;;
33993;SDS011;20673;48.980;8.138;2022-09-02T03:15:12;6.97;;;5.57;;
33993;SDS011;20673;48.980;8.138;2022-09-02T03:17:48;6.97;;;6.28;;
33993;SDS011;20673;48.980;8.138;2022-09-02T03:20:13;6.50;;;5.80;;
33993;SDS011;20673;48.980;8.138;2022-09-02T03:22:42;6.30;;;5.80;;
33993;SDS011;20673;48.980;8.138;2022-09-02T03:25:12;6.20;;;5.57;;
33993;SDS011;20673;48.980;8.138;2022-09-02T03:27:42;7.33;;;6.35;;
33993;SDS011;20673;48.980;8.138;2022-09-02T03:30:13;8.23;;;6.53;;
33993;SDS011;20673;48.980;8.138;2022-09-02T03:32:42;6.85;;;6.15;;
33993;SDS011;20673;48.980;8.138;2022-09-02T03:35:10;6.77;;;6.17;;
33993;SDS011;20673;48.980;8.138;2022-09-02T03:37:39;7.63;;;6.70;;
33993;SDS011;20673;48.980;8.138;2022-09-02T03:40:08;6.73;;;6.00;;
33993;SDS011;20673;48.980;8.138;2022-09-02T03:42:38;6.85;;;5.92;;
33993;SDS011;20673;48.980;8.138;2022-09-02T03:45:05;8.07;;;5.20;;
33993;SDS011;20673;48.980;8.138;2022-09-02T03:47:34;6.90;;;6.20;;
33993;SDS011;20673;48.980;8.138;2022-09-02T03:50:02;6.77;;;6.03;;
33993;SDS011;20673;48.980;8.138;2022-09-02T03:52:29;6.63;;;5.60;;
33993;SDS011;20673;48.980;8.138;2022-09-02T03:54:55;7.33;;;6.40;;
33993;SDS011;20673;48.980;8.138;2022-09-02T03:57:21;7.07;;;6.37;;
33993;SDS011;20673;48.980;8.138;2022-09-02T03:59:49;8.37;;;6.07;;
33993;SDS011;20673;48.980;8.138;2022-09-02T04:02:16;6.53;;;5.73;;
33993;SDS011;20673;48.980;8.138;2022-09-02T04:04:43;6.63;;;6.00;;
33993;SDS011;20673;48.980;8.138;2022-09-02T04:07:09;6.83;;;6.20;;
33993;SDS011;20673;48.980;8.138;2022-09-02T04:09:35;6.10;;;5.60;;
33993;SDS011;20673;48.980;8.138;2022-09-02T04:12:02;6.93;;;6.33;;
33993;SDS011;20673;48.980;8.138;2022-09-02T04:14:30;6.47;;;5.87;;
33993;SDS011;20673;48.980;8.138;2022-09-02T04:16:56;6.73;;;6.13;;
33993;SDS011;20673;48.980;8.138;2022-09-02T04:19:22;8.17;;;6.20;;
33993;SDS011;20673;48.980;8.138;2022-09-02T04:21:48;6.47;;;5.87;;
33993;SDS011;20673;48.980;8.138;2022-09-02T04:24:15;6.60;;;5.97;;
33993;SDS011;20673;48.980;8.138;2022-09-02T04:26:41;6.87;;;6.20;;
33993;SDS011;20673;48.980;8.138;2022-09-02T04:29:07;7.03;;;6.33;;
33993;SDS011;20673;48.980;8.138;2022-09-02T04:31:33;6.80;;;6.00;;
33993;SDS011;20673;48.980;8.138;2022-09-02T04:34:00;6.87;;;6.17;;
33993;SDS011;20673;48.980;8.138;2022-09-02T04:36:27;7.03;;;6.43;;
33993;SDS011;20673;48.980;8.138;2022-09-02T04:38:55;7.07;;;6.37;;
33993;SDS011;20673;48.980;8.138;2022-09-02T04:41:25;6.67;;;6.07;;
33993;SDS011;20673;48.980;8.138;2022-09-02T04:43:55;8.63;;;5.70;;
33993;SDS011;20673;48.980;8.138;2022-09-02T04:46:24;6.93;;;6.30;;
33993;SDS011;20673;48.980;8.138;2022-09-02T04:48:51;9.50;;;7.00;;
33993;SDS011;20673;48.980;8.138;2022-09-02T04:51:18;7.03;;;6.30;;
33993;SDS011;20673;48.980;8.138;2022-09-02T04:53:48;7.07;;;6.40;;
33993;SDS011;20673;48.980;8.138;2022-09-02T04:56:18;6.80;;;5.83;;
33993;SDS011;20673;48.980;8.138;2022-09-02T04:58:50;6.40;;;5.80;;
33993;SDS011;20673;48.980;8.138;2022-09-02T05:01:18;6.87;;;6.17;;
33993;SDS011;20673;48.980;8.138;2022-09-02T05:03:48;6.60;;;5.80;;
33993;SDS011;20673;48.980;8.138;2022-09-02T05:06:21;6.93;;;6.23;;
33993;SDS011;20673;48.980;8.138;2022-09-02T05:08:47;8.18;;;6.22;;
33993;SDS011;20673;48.980;8.138;2022-09-02T05:11:15;7.00;;;6.27;;
33993;SDS011;20673;48.980;8.138;2022-09-02T05:13:45;8.17;;;6.60;;
33993;SDS011;20673;48.980;8.138;2022-09-02T05:16:19;7.10;;;6.30;;
33993;SDS011;20673;48.980;8.138;2022-09-02T05:18:50;6.47;;;5.93;;
33993;SDS011;20673;48.980;8.138;2022-09-02T05:21:17;6.87;;;6.17;;
33993;SDS011;20673;48.980;8.138;2022-09-02T05:23:43;7.70;;;6.23;;
33993;SDS011;20673;48.980;8.138;2022-09-02T05:26:10;7.90;;;7.13;;
33993;SDS011;20673;48.980;8.138;2022-09-02T05:28:38;6.70;;;5.60;;
33993;SDS011;20673;48.980;8.138;2022-09-02T05:31:10;7.00;;;5.67;;
33993;SDS011;20673;48.980;8.138;2022-09-02T05:33:40;6.47;;;5.80;;
33993;SDS011;20673;48.980;8.138;2022-09-02T05:36:07;7.07;;;6.17;;
33993;SDS011;20673;48.980;8.138;2022-09-02T05:38:40;6.50;;;5.83;;
33993;SDS011;20673;48.980;8.138;2022-09-02T05:41:08;6.07;;;5.47;;
33993;SDS011;20673;48.980;8.138;2022-09-02T05:43:40;6.00;;;5.40;;
33993;SDS011;20673;48.980;8.138;2022-09-02T05:46:11;6.27;;;5.63;;
33993;SDS011;20673;48.980;8.138;2022-09-02T05:48:42;6.20;;;5.60;;
33993;SDS011;20673;48.980;8.138;2022-09-02T05:51:28;7.00;;;5.50;;
33993;SDS011;20673;48.980;8.138;2022-09-02T05:53:55;6.40;;;5.80;;
33993;SDS011;20673;48.980;8.138;2022-09-02T05:56:25;7.13;;;5.80;;
33993;SDS011;20673;48.980;8.138;2022-09-02T05:58:53;5.30;;;4.80;;
33993;SDS011;20673;48.980;8.138;2022-09-02T06:01:23;5.90;;;5.40;;
33993;SDS011;20673;48.980;8.138;2022-09-02T06:03:49;9.23;;;5.40;;
33993;SDS011;20673;48.980;8.138;2022-09-02T06:06:16;6.53;;;5.03;;
33993;SDS011;20673;48.980;8.138;2022-09-02T06:08:44;5.43;;;4.77;;
33993;SDS011;20673;48.980;8.138;2022-09-02T06:11:11;9.30;;;5.10;;
33993;SDS011;20673;48.980;8.138;2022-09-02T06:13:39;6.87;;;4.93;;
33993;SDS011;20673;48.980;8.138;2022-09-02T06:16:07;5.10;;;4.60;;
33993;SDS011;20673;48.980;8.138;2022-09-02T06:18:37;6.50;;;4.47;;
33993;SDS011;20673;48.980;8.138;2022-09-02T06:21:04;5.40;;;4.50;;
33993;SDS011;20673;48.980;8.138;2022-09-02T06:23:32;4.67;;;4.23;;
33993;SDS011;20673;48.980;8.138;2022-09-02T06:26:02;4.60;;;4.20;;
33993;SDS011;20673;48.980;8.138;2022-09-02T06:28:29;5.83;;;4.20;;
33993;SDS011;20673;48.980;8.138;2022-09-02T06:30:56;5.03;;;4.53;;
33993;SDS011;20673;48.980;8.138;2022-09-02T06:33:22;5.23;;;4.20;;
33993;SDS011;20673;48.980;8.138;2022-09-02T06:35:49;4.45;;;4.00;;
33993;SDS011;20673;48.980;8.138;2022-09-02T06:38:16;4.62;;;3.92;;
33993;SDS011;20673;48.980;8.138;2022-09-02T06:40:48;3.97;;;3.60;;
33993;SDS011;20673;48.980;8.138;2022-09-02T06:45:43;3.75;;;3.30;;
33993;SDS011;20673;48.980;8.138;2022-09-02T06:48:10;4.95;;;3.20;;
33993;SDS011;20673;48.980;8.138;2022-09-02T06:50:41;4.12;;;3.37;;
33993;SDS011;20673;48.980;8.138;2022-09-02T06:53:10;3.70;;;3.30;;
33993;SDS011;20673;48.980;8.138;2022-09-02T06:55:38;6.20;;;3.30;;
33993;SDS011;20673;48.980;8.138;2022-09-02T06:58:07;7.40;;;3.00;;
33993;SDS011;20673;48.980;8.138;2022-09-02T07:00:34;4.53;;;3.00;;
33993;SDS011;20673;48.980;8.138;2022-09-02T07:03:02;4.05;;;3.15;;
33993;SDS011;20673;48.980;8.138;2022-09-02T07:08:40;6.60;;;3.12;;
33993;SDS011;20673;48.980;8.138;2022-09-02T07:11:14;4.72;;;3.08;;
33993;SDS011;20673;48.980;8.138;2022-09-02T07:13:47;4.10;;;2.80;;
33993;SDS011;20673;48.980;8.138;2022-09-02T07:16:15;5.37;;;2.80;;
33993;SDS011;20673;48.980;8.138;2022-09-02T07:18:43;3.50;;;2.67;;
33993;SDS011;20673;48.980;8.138;2022-09-02T07:21:10;3.87;;;2.50;;
33993;SDS011;20673;48.980;8.138;2022-09-02T07:23:37;3.27;;;2.60;;
33993;SDS011;20673;48.980;8.138;2022-09-02T07:26:06;3.65;;;2.90;;
33993;SDS011;20673;48.980;8.138;2022-09-02T07:28:37;3.50;;;2.73;;
33993;SDS011;20673;48.980;8.138;2022-09-02T07:31:07;5.15;;;2.90;;
33993;SDS011;20673;48.980;8.138;2022-09-02T07:33:36;5.97;;;2.60;;
33993;SDS011;20673;48.980;8.138;2022-09-02T07:36:03;4.37;;;2.80;;
33993;SDS011;20673;48.980;8.138;2022-09-02T07:38:31;2.43;;;2.23;;
33993;SDS011;20673;48.980;8.138;2022-09-02T07:40:59;3.13;;;2.30;;
33993;SDS011;20673;48.980;8.138;2022-09-02T07:43:26;3.37;;;2.17;;
33993;SDS011;20673;48.980;8.138;2022-09-02T07:45:55;2.40;;;2.20;;
33993;SDS011;20673;48.980;8.138;2022-09-02T07:48:22;2.60;;;1.93;;
33993;SDS011;20673;48.980;8.138;2022-09-02T07:50:49;4.03;;;2.10;;
33993;SDS011;20673;48.980;8.138;2022-09-02T07:53:16;3.17;;;1.98;;
33993;SDS011;20673;48.980;8.138;2022-09-02T07:55:43;3.00;;;1.90;;
33993;SDS011;20673;48.980;8.138;2022-09-02T07:58:10;2.53;;;1.70;;
33993;SDS011;20673;48.980;8.138;2022-09-02T08:00:39;4.53;;;1.90;;
33993;SDS011;20673;48.980;8.138;2022-09-02T08:03:07;2.15;;;1.52;;
33993;SDS011;20673;48.980;8.138;2022-09-02T08:05:35;4.83;;;1.70;;
33993;SDS011;20673;48.980;8.138;2022-09-02T08:08:03;2.95;;;1.90;;
33993;SDS011;20673;48.980;8.138;2022-09-02T08:10:32;5.63;;;1.70;;
33993;SDS011;20673;48.980;8.138;2022-09-02T08:13:01;3.00;;;1.53;;
33993;SDS011;20673;48.980;8.138;2022-09-02T08:15:31;2.30;;;1.70;;
33993;SDS011;20673;48.980;8.138;2022-09-02T08:18:00;4.95;;;2.12;;
33993;SDS011;20673;48.980;8.138;2022-09-02T08:20:28;2.37;;;1.47;;
33993;SDS011;20673;48.980;8.138;2022-09-02T08:22:57;2.53;;;1.60;;
33993;SDS011;20673;48.980;8.138;2022-09-02T08:25:24;3.27;;;1.70;;
33993;SDS011;20673;48.980;8.138;2022-09-02T08:27:52;4.80;;;1.67;;
33993;SDS011;20673;48.980;8.138;2022-09-02T08:30:19;3.27;;;1.62;;
33993;SDS011;20673;48.980;8.138;2022-09-02T08:32:45;3.08;;;1.52;;
33993;SDS011;20673;48.980;8.138;2022-09-02T08:35:12;4.47;;;1.77;;
33993;SDS011;20673;48.980;8.138;2022-09-02T08:37:38;4.28;;;1.50;;
33993;SDS011;20673;48.980;8.138;2022-09-02T08:40:05;3.83;;;1.70;;
33993;SDS011;20673;48.980;8.138;2022-09-02T08:42:36;3.22;;;1.80;;
33993;SDS011;20673;48.980;8.138;2022-09-02T08:45:11;4.25;;;1.50;;
33993;SDS011;20673;48.980;8.138;2022-09-02T08:48:05;4.28;;;1.40;;
33993;SDS011;20673;48.980;8.138;2022-09-02T08:50:48;2.00;;;1.55;;
33993;SDS011;20673;48.980;8.138;2022-09-02T08:56:07;3.67;;;1.45;;
33993;SDS011;20673;48.980;8.138;2022-09-02T08:58:38;2.37;;;1.70;;
33993;SDS011;20673;48.980;8.138;2022-09-02T09:13:18;3.65;;;1.85;;
33993;SDS011;20673;48.980;8.138;2022-09-02T09:15:58;1.70;;;1.37;;
33993;SDS011;20673;48.980;8.138;2022-09-02T09:19:02;3.65;;;1.42;;
33993;SDS011;20673;48.980;8.138;2022-09-02T09:21:33;2.10;;;1.25;;
33993;SDS011;20673;48.980;8.138;2022-09-02T09:23:59;4.30;;;1.22;;
33993;SDS011;20673;48.980;8.138;2022-09-02T09:26:31;2.08;;;1.32;;
33993;SDS011;20673;48.980;8.138;2022-09-02T09:29:03;2.80;;;1.25;;
33993;SDS011;20673;48.980;8.138;2022-09-02T09:31:30;2.50;;;1.60;;
33993;SDS011;20673;48.980;8.138;2022-09-02T09:34:06;3.42;;;1.20;;
33993;SDS011;20673;48.980;8.138;2022-09-02T09:36:42;2.87;;;1.45;;
33993;SDS011;20673;48.980;8.138;2022-09-02T09:39:28;2.00;;;1.37;;
33993;SDS011;20673;48.980;8.138;2022-09-02T09:41:57;3.90;;;1.45;;
33993;SDS011;20673;48.980;8.138;2022-09-02T09:44:38;2.02;;;1.37;;
33993;SDS011;20673;48.980;8.138;2022-09-02T09:47:14;2.37;;;1.40;;
33993;SDS011;20673;48.980;8.138;2022-09-02T09:49:45;3.77;;;1.67;;
33993;SDS011;20673;48.980;8.138;2022-09-02T09:52:28;3.35;;;1.60;;
33993;SDS011;20673;48.980;8.138;2022-09-02T09:55:08;2.47;;;1.37;;
33993;SDS011;20673;48.980;8.138;2022-09-02T09:57:39;2.20;;;1.40;;
33993;SDS011;20673;48.980;8.138;2022-09-02T10:02:53;6.65;;;1.40;;
33993;SDS011;20673;48.980;8.138;2022-09-02T10:08:02;3.17;;;1.57;;
33993;SDS011;20673;48.980;8.138;2022-09-02T10:10:28;4.25;;;1.62;;
33993;SDS011;20673;48.980;8.138;2022-09-02T10:15:53;2.90;;;1.32;;
33993;SDS011;20673;48.980;8.138;2022-09-02T10:18:23;2.50;;;1.40;;
33993;SDS011;20673;48.980;8.138;2022-09-02T10:21:12;1.50;;;1.30;;
33993;SDS011;20673;48.980;8.138;2022-09-02T10:24:24;3.27;;;1.40;;
33993;SDS011;20673;48.980;8.138;2022-09-02T10:26:58;2.42;;;1.32;;
33993;SDS011;20673;48.980;8.138;2022-09-02T10:29:32;4.72;;;1.50;;
33993;SDS011;20673;48.980;8.138;2022-09-02T10:32:22;3.58;;;1.30;;
33993;SDS011;20673;48.980;8.138;2022-09-02T10:40:54;2.70;;;1.40;;
33993;SDS011;20673;48.980;8.138;2022-09-02T10:58:07;2.33;;;1.25;;
33993;SDS011;20673;48.980;8.138;2022-09-02T11:00:49;3.42;;;1.10;;
33993;SDS011;20673;48.980;8.138;2022-09-02T11:05:57;2.65;;;1.10;;
33993;SDS011;20673;48.980;8.138;2022-09-02T11:11:26;2.90;;;1.15;;
33993;SDS011;20673;48.980;8.138;2022-09-02T11:14:01;1.85;;;1.17;;
33993;SDS011;20673;48.980;8.138;2022-09-02T11:16:53;1.57;;;1.27;;
33993;SDS011;20673;48.980;8.138;2022-09-02T11:25:29;4.45;;;1.20;;
33993;SDS011;20673;48.980;8.138;2022-09-02T11:30:44;1.45;;;1.05;;
33993;SDS011;20673;48.980;8.138;2022-09-02T11:33:19;2.87;;;1.10;;
33993;SDS011;20673;48.980;8.138;2022-09-02T11:35:50;1.42;;;1.30;;
33993;SDS011;20673;48.980;8.138;2022-09-02T11:38:28;3.37;;;1.10;;
33993;SDS011;20673;48.980;8.138;2022-09-02T11:52:59;1.47;;;1.12;;
33993;SDS011;20673;48.980;8.138;2022-09-02T11:55:41;2.62;;;1.02;;
33993;SDS011;20673;48.980;8.138;2022-09-02T11:58:28;1.37;;;1.05;;
33993;SDS011;20673;48.980;8.138;2022-09-02T12:03:51;1.90;;;1.10;;
33993;SDS011;20673;48.980;8.138;2022-09-02T12:06:29;4.10;;;1.50;;
33993;SDS011;20673;48.980;8.138;2022-09-02T12:08:57;1.65;;;0.82;;
33993;SDS011;20673;48.980;8.138;2022-09-02T12:11:40;6.25;;;1.00;;
33993;SDS011;20673;48.980;8.138;2022-09-02T12:17:02;4.12;;;1.30;;
33993;SDS011;20673;48.980;8.138;2022-09-02T12:19:39;1.35;;;1.00;;
33993;SDS011;20673;48.980;8.138;2022-09-02T12:27:40;3.42;;;1.22;;
33993;SDS011;20673;48.980;8.138;2022-09-02T12:30:01;1.12;;;1.00;;
33993;SDS011;20673;48.980;8.138;2022-09-02T12:46:35;1.40;;;1.10;;
33993;SDS011;20673;48.980;8.138;2022-09-02T12:49:46;1.60;;;0.80;;
33993;SDS011;20673;48.980;8.138;2022-09-02T12:52:09;1.65;;;0.82;;
33993;SDS011;20673;48.980;8.138;2022-09-02T12:54:46;1.15;;;0.82;;
33993;SDS011;20673;48.980;8.138;2022-09-02T12:57:15;1.95;;;1.00;;
33993;SDS011;20673;48.980;8.138;2022-09-02T12:59:44;2.22;;;1.00;;
33993;SDS011;20673;48.980;8.138;2022-09-02T13:02:23;3.65;;;1.17;;
33993;SDS011;20673;48.980;8.138;2022-09-02T13:14:05;3.25;;;1.00;;
33993;SDS011;20673;48.980;8.138;2022-09-02T13:22:39;1.65;;;1.10;;
33993;SDS011;20673;48.980;8.138;2022-09-02T13:25:27;2.83;;;1.20;;
33993;SDS011;20673;48.980;8.138;2022-09-02T13:34:00;3.85;;;1.10;;
33993;SDS011;20673;48.980;8.138;2022-09-02T13:36:36;1.60;;;0.95;;
33993;SDS011;20673;48.980;8.138;2022-09-02T13:39:09;3.83;;;1.30;;
33993;SDS011;20673;48.980;8.138;2022-09-02T13:41:51;1.30;;;0.90;;
33993;SDS011;20673;48.980;8.138;2022-09-02T13:44:20;1.10;;;0.90;;
33993;SDS011;20673;48.980;8.138;2022-09-02T13:49:35;1.22;;;0.80;;
33993;SDS011;20673;48.980;8.138;2022-09-02T13:52:11;1.87;;;0.93;;
33993;SDS011;20673;48.980;8.138;2022-09-02T13:54:43;2.05;;;1.10;;
33993;SDS011;20673;48.980;8.138;2022-09-02T13:57:22;3.83;;;1.17;;
33993;SDS011;20673;48.980;8.138;2022-09-02T14:05:02;1.82;;;1.30;;
33993;SDS011;20673;48.980;8.138;2022-09-02T14:07:45;1.50;;;1.05;;
33993;SDS011;20673;48.980;8.138;2022-09-02T14:10:16;2.40;;;1.20;;
33993;SDS011;20673;48.980;8.138;2022-09-02T14:12:46;2.25;;;0.98;;
33993;SDS011;20673;48.980;8.138;2022-09-02T14:15:15;1.90;;;0.90;;
33993;SDS011;20673;48.980;8.138;2022-09-02T14:17:46;1.98;;;0.90;;
33993;SDS011;20673;48.980;8.138;2022-09-02T14:20:39;2.98;;;1.00;;
33993;SDS011;20673;48.980;8.138;2022-09-02T14:23:29;3.58;;;0.90;;
33993;SDS011;20673;48.980;8.138;2022-09-02T14:25:58;5.22;;;1.25;;
33993;SDS011;20673;48.980;8.138;2022-09-02T14:28:28;2.55;;;1.10;;
33993;SDS011;20673;48.980;8.138;2022-09-02T14:31:01;2.08;;;1.15;;
33993;SDS011;20673;48.980;8.138;2022-09-02T14:33:43;1.70;;;1.05;;
33993;SDS011;20673;48.980;8.138;2022-09-02T14:43:57;4.78;;;1.37;;
33993;SDS011;20673;48.980;8.138;2022-09-02T14:47:03;1.07;;;0.93;;
33993;SDS011;20673;48.980;8.138;2022-09-02T14:52:01;2.58;;;0.80;;
33993;SDS011;20673;48.980;8.138;2022-09-02T14:54:41;3.35;;;1.02;;
33993;SDS011;20673;48.980;8.138;2022-09-02T14:59:53;2.40;;;1.25;;
33993;SDS011;20673;48.980;8.138;2022-09-02T15:04:57;5.72;;;1.25;;
33993;SDS011;20673;48.980;8.138;2022-09-02T15:07:27;7.33;;;1.22;;
33993;SDS011;20673;48.980;8.138;2022-09-02T15:09:53;1.45;;;0.75;;
33993;SDS011;20673;48.980;8.138;2022-09-02T15:12:22;2.00;;;1.07;;
33993;SDS011;20673;48.980;8.138;2022-09-02T15:14:54;4.22;;;1.02;;
33993;SDS011;20673;48.980;8.138;2022-09-02T15:17:21;1.37;;;1.22;;
33993;SDS011;20673;48.980;8.138;2022-09-02T15:19:47;2.22;;;1.15;;
33993;SDS011;20673;48.980;8.138;2022-09-02T15:22:14;2.33;;;0.88;;
33993;SDS011;20673;48.980;8.138;2022-09-02T15:24:42;1.47;;;0.90;;
33993;SDS011;20673;48.980;8.138;2022-09-02T15:27:09;4.45;;;1.07;;
33993;SDS011;20673;48.980;8.138;2022-09-02T15:29:36;1.45;;;1.05;;
33993;SDS011;20673;48.980;8.138;2022-09-02T15:32:03;0.85;;;0.78;;
33993;SDS011;20673;48.980;8.138;2022-09-02T15:34:30;2.92;;;1.37;;
33993;SDS011;20673;48.980;8.138;2022-09-02T15:36:57;1.60;;;0.95;;
33993;SDS011;20673;48.980;8.138;2022-09-02T15:39:23;1.42;;;1.00;;
33993;SDS011;20673;48.980;8.138;2022-09-02T15:41:50;2.70;;;1.20;;
33993;SDS011;20673;48.980;8.138;2022-09-02T15:44:18;1.20;;;0.90;;
33993;SDS011;20673;48.980;8.138;2022-09-02T15:46:45;9.95;;;1.20;;
33993;SDS011;20673;48.980;8.138;2022-09-02T15:49:12;1.62;;;1.00;;
33993;SDS011;20673;48.980;8.138;2022-09-02T15:51:41;0.80;;;0.75;;
33993;SDS011;20673;48.980;8.138;2022-09-02T15:54:10;3.33;;;1.10;;
33993;SDS011;20673;48.980;8.138;2022-09-02T15:56:40;2.20;;;1.07;;
33993;SDS011;20673;48.980;8.138;2022-09-02T15:59:12;1.62;;;0.93;;
33993;SDS011;20673;48.980;8.138;2022-09-02T16:01:42;1.47;;;1.02;;
33993;SDS011;20673;48.980;8.138;2022-09-02T16:04:12;3.08;;;0.90;;
33993;SDS011;20673;48.980;8.138;2022-09-02T16:06:42;1.05;;;0.90;;
33993;SDS011;20673;48.980;8.138;2022-09-02T16:09:11;3.33;;;0.98;;
33993;SDS011;20673;48.980;8.138;2022-09-02T16:11:39;3.35;;;1.00;;
33993;SDS011;20673;48.980;8.138;2022-09-02T16:14:08;1.25;;;0.90;;
33993;SDS011;20673;48.980;8.138;2022-09-02T16:16:35;4.80;;;2.77;;
33993;SDS011;20673;48.980;8.138;2022-09-02T16:19:02;2.45;;;1.95;;
33993;SDS011;20673;48.980;8.138;2022-09-02T16:21:31;1.67;;;0.93;;
33993;SDS011;20673;48.980;8.138;2022-09-02T16:23:58;1.50;;;0.75;;
33993;SDS011;20673;48.980;8.138;2022-09-02T16:26:28;6.00;;;0.98;;
33993;SDS011;20673;48.980;8.138;2022-09-02T16:28:58;1.98;;;1.40;;
33993;SDS011;20673;48.980;8.138;2022-09-02T16:31:28;1.22;;;1.10;;
33993;SDS011;20673;48.980;8.138;2022-09-02T16:34:01;2.22;;;0.98;;
33993;SDS011;20673;48.980;8.138;2022-09-02T16:36:34;1.20;;;0.82;;
33993;SDS011;20673;48.980;8.138;2022-09-02T16:39:07;1.00;;;0.85;;
33993;SDS011;20673;48.980;8.138;2022-09-02T16:41:37;2.50;;;2.02;;
33993;SDS011;20673;48.980;8.138;2022-09-02T16:44:11;1.70;;;0.95;;
33993;SDS011;20673;48.980;8.138;2022-09-02T16:46:46;1.80;;;0.90;;
33993;SDS011;20673;48.980;8.138;2022-09-02T16:49:15;1.95;;;1.10;;
33993;SDS011;20673;48.980;8.138;2022-09-02T16:51:45;1.60;;;1.25;;
33993;SDS011;20673;48.980;8.138;2022-09-02T16:54:15;2.90;;;1.10;;
33993;SDS011;20673;48.980;8.138;2022-09-02T16:56:44;3.10;;;0.80;;
33993;SDS011;20673;48.980;8.138;2022-09-02T16:59:11;2.72;;;1.00;;
33993;SDS011;20673;48.980;8.138;2022-09-02T17:01:37;2.37;;;0.98;;
33993;SDS011;20673;48.980;8.138;2022-09-02T17:04:04;1.85;;;0.98;;
33993;SDS011;20673;48.980;8.138;2022-09-02T17:06:32;3.55;;;1.22;;
33993;SDS011;20673;48.980;8.138;2022-09-02T17:08:58;1.00;;;0.90;;
33993;SDS011;20673;48.980;8.138;2022-09-02T17:11:28;2.87;;;1.30;;
33993;SDS011;20673;48.980;8.138;2022-09-02T17:14:03;3.85;;;1.20;;
33993;SDS011;20673;48.980;8.138;2022-09-02T17:16:36;1.10;;;0.80;;
33993;SDS011;20673;48.980;8.138;2022-09-02T17:19:04;2.08;;;1.07;;
33993;SDS011;20673;48.980;8.138;2022-09-02T17:24:12;1.15;;;1.00;;
33993;SDS011;20673;48.980;8.138;2022-09-02T17:26:40;3.33;;;1.20;;
33993;SDS011;20673;48.980;8.138;2022-09-02T17:29:11;3.17;;;1.27;;
33993;SDS011;20673;48.980;8.138;2022-09-02T17:31:43;2.33;;;1.20;;
33993;SDS011;20673;48.980;8.138;2022-09-02T17:34:11;1.22;;;0.90;;
33993;SDS011;20673;48.980;8.138;2022-09-02T17:36:38;2.37;;;1.00;;
33993;SDS011;20673;48.980;8.138;2022-09-02T17:39:08;3.30;;;0.90;;